This is the latest recevied weather packets stored in our database for station/object F4JUT-10. If no packets are shown the sender has not sent any weather packets the latest 10 day(s).
| Time | Temp. | Humidity | Pressure | Rain* | Wind** | Luminosity | Snow |
|---|---|---|---|---|---|---|---|
| 1777451562 | 21.11° C | 56% | 1019.2 hPa | - | - | - | - |
| 1777450662 | 21.11° C | 58% | 1019.2 hPa | - | - | - | - |
| 1777449761 | 20.56° C | 64% | 1019.1 hPa | - | - | - | - |
| 1777448861 | 18.33° C | 70% | 1019.2 hPa | - | - | - | - |
| 1777447961 | 17.22° C | 79% | 1019.2 hPa | - | - | - | - |
| 1777447061 | 15.56° C | 85% | 1019.2 hPa | - | - | - | - |
| 1777446161 | 13.33° C | 92% | 1019.1 hPa | - | - | - | - |
| 1777445274 | 12.78° C | 93% | 1019 hPa | - | - | - | - |
| 1777444374 | 12.22° C | 96% | 1018.9 hPa | - | - | - | - |
| 1777443474 | 11.67° C | 97% | 1018.8 hPa | - | - | - | - |
| 1777442574 | 11.67° C | 97% | 1018.8 hPa | - | - | - | - |
| 1777441674 | 11.11° C | 94% | 1018.8 hPa | - | - | - | - |
| 1777440774 | 11.11° C | 95% | 1018.7 hPa | - | - | - | - |
| 1777439874 | 10.56° C | 96% | 1018.7 hPa | - | - | - | - |
| 1777438974 | 10.56° C | 97% | 1018.5 hPa | - | - | - | - |
| 1777438074 | 10.56° C | 95% | 1018.4 hPa | - | - | - | - |
| 1777437173 | 10° C | 93% | 1018.4 hPa | - | - | - | - |
| 1777436273 | 10° C | 91% | 1018.4 hPa | - | - | - | - |
| 1777435373 | 10.56° C | 93% | 1018.5 hPa | - | - | - | - |
| 1777434473 | 11.11° C | 92% | 1018.7 hPa | - | - | - | - |
| 1777433573 | 11.11° C | 92% | 1018.5 hPa | - | - | - | - |
| 1777432673 | 10.56° C | 92% | 1018.5 hPa | - | - | - | - |
| 1777431773 | 10.56° C | 93% | 1018.4 hPa | - | - | - | - |
| 1777430873 | 10.56° C | 93% | 1018.5 hPa | - | - | - | - |
| 1777429973 | 10.56° C | 93% | 1018.4 hPa | - | - | - | - |
* Rain since midnight (hover to see other rain measurements)
** Current wind speed in m/s (hover to see current wind gust speed)